Flight Track Log - Related Links

Times and Time Zones

All times are in EDT time to prevent confusion due to time zone crossing. See the N536M flight status page for this flight to view local times or setup timezone preferences in your user account.

Time Position Orientation Groundspeed Altitude Reporting Facility
EDT Latitude Longitude Course Direction KTS MPH feet Rate Location/Type
Fri 05:13:10 PM 39.7333 -86.2833 333° Northwest 144 166 1,300  Level Indianapolis TRACON
Fri 05:14:04 PM 39.7833 -86.3167 333° Northwest 190 219 2,800 1,444 Climbing Indianapolis TRACON
Fri 05:14:58 PM 39.8236 -86.3136 North 166 191 3,900 1,241 Climbing Indianapolis Center
Fri 05:16:00 PM 39.8781 -86.3389 340° North 201 231 5,200 1,306 Climbing Indianapolis Center
Fri 05:17:02 PM 39.9303 -86.3722 334° Northwest 207 238 6,600 871 Climbing Indianapolis Center
Fri 05:18:04 PM 39.9839 -86.4081 333° Northwest 211 243 7,000 726 Climbing Indianapolis Center
Fri 05:19:06 PM 40.0517 -86.4519 334° Northwest 222 255 8,100 1,113 Climbing Indianapolis Center
Fri 05:20:08 PM 40.1067 -86.4878 334° Northwest 223 257 9,300 1,138 Climbing Indianapolis Center
Fri 05:21:02 PM 40.1469 -86.5150 333° Northwest 210 242 10,300 1,138 Climbing Chicago Center
Fri 05:22:04 PM 40.1867 -86.5697 314° West 210 242 11,500 774 Climbing Chicago Center
Fri 05:23:06 PM 40.2428 -86.6328 319° Northwest 228 262 11,900 194 Climbing Chicago Center
Fri 05:24:08 PM 40.3014 -86.6778 330° Northwest 245 282 11,900  Level Chicago Center
Fri 05:25:11 PM 40.3611 -86.7244 329° Northwest 251 289 11,900  Level Chicago Center
Fri 05:26:13 PM 40.4208 -86.7722 329° Northwest 253 291 11,900  Level Chicago Center
Fri 05:27:15 PM 40.4811 -86.8183 330° Northwest 252 290 11,900  Level Chicago Center
Fri 05:28:17 PM 40.5403 -86.8669 328° Northwest 252 290 11,900  Level Chicago Center
Fri 05:29:19 PM 40.6119 -86.9231 329° Northwest 251 289 11,900  Level Chicago Center
Fri 05:30:21 PM 40.6717 -86.9719 328° Northwest 252 290 11,900  Level Chicago Center
Fri 05:31:23 PM 40.7261 -87.0144 329° Northwest 251 289 11,900  Level Chicago Center
Fri 05:32:25 PM 40.7967 -87.0722 328° Northwest 250 288 11,900 -290 Level Chicago Center
Fri 05:33:27 PM 40.8575 -87.1197 329° Northwest 253 291 11,300 -726 Descending Chicago Center
Fri 05:34:29 PM 40.9194 -87.1714 328° Northwest 263 303 10,400 -629 Descending Chicago Center
Fri 05:35:31 PM 40.9794 -87.2189 329° Northwest 253 291 10,000 -194 Descending Chicago Center
Fri 05:36:33 PM 41.0403 -87.2636 331° Northwest 251 289 10,000 -384 Level Chicago Center
Fri 05:37:36 PM 41.1103 -87.3225 328° Northwest 250 288 9,200 -1,392 Descending Chicago Center
Fri 05:38:38 PM 41.1706 -87.3728 328° Northwest 255 293 7,100 -1,742 Descending Chicago Center
Fri 05:39:40 PM 41.2294 -87.4189 330° Northwest 252 290 5,600 -1,452 Descending Chicago Center
Fri 05:40:42 PM 41.2917 -87.3975 14° North 240 276 4,100 -774 Descending Chicago Center
Fri 05:41:44 PM 41.3628 -87.3653 19° North 232 267 4,000 -48 Descending Chicago Center
Fri 05:42:46 PM 41.4192 -87.3403 18° North 225 259 4,000 -435 Level Chicago Center
Fri 05:43:48 PM 41.4733 -87.3228 14° North 217 250 3,100 -823 Descending Chicago Center
Fri 05:44:50 PM 41.5297 -87.3239 359° North 210 242 2,300 -677 Descending Chicago Center
Fri 05:45:52 PM 41.5833 -87.3375 349° North 200 230 1,700 -581 Descending Chicago Center
Fri 05:48:00 PM 41.6000 -87.4000 294° West  Level FlightAware Approximate
Fri 05:55:00 PM 41.6163 -87.4128 294° West  Level Estimated

Login

Don't have an account? Register now (free) for customized features, flight alerts, and more!